sensor_id;sensor_type;location;lat;lon;timestamp;P1;durP1;ratioP1;P2;durP2;ratioP2
19891;SDS011;10108;50.142;8.724;2023-03-13T00:01:16;27.38;;;6.38;;
19891;SDS011;10108;50.142;8.724;2023-03-13T00:03:54;15.73;;;6.40;;
19891;SDS011;10108;50.142;8.724;2023-03-13T00:06:21;17.33;;;7.20;;
19891;SDS011;10108;50.142;8.724;2023-03-13T00:08:49;22.67;;;6.32;;
19891;SDS011;10108;50.142;8.724;2023-03-13T00:11:16;25.45;;;7.45;;
19891;SDS011;10108;50.142;8.724;2023-03-13T00:13:42;16.25;;;6.50;;
19891;SDS011;10108;50.142;8.724;2023-03-13T00:16:12;20.27;;;7.10;;
19891;SDS011;10108;50.142;8.724;2023-03-13T00:18:46;14.63;;;6.47;;
19891;SDS011;10108;50.142;8.724;2023-03-13T00:21:14;24.73;;;7.15;;
19891;SDS011;10108;50.142;8.724;2023-03-13T00:23:42;17.33;;;6.68;;
19891;SDS011;10108;50.142;8.724;2023-03-13T00:26:09;22.10;;;6.90;;
19891;SDS011;10108;50.142;8.724;2023-03-13T00:28:38;18.08;;;6.53;;
19891;SDS011;10108;50.142;8.724;2023-03-13T00:31:09;19.00;;;6.65;;
19891;SDS011;10108;50.142;8.724;2023-03-13T00:33:38;23.00;;;7.57;;
19891;SDS011;10108;50.142;8.724;2023-03-13T00:36:07;15.20;;;5.97;;
19891;SDS011;10108;50.142;8.724;2023-03-13T00:38:41;23.48;;;6.95;;
19891;SDS011;10108;50.142;8.724;2023-03-13T00:41:12;20.80;;;6.80;;
19891;SDS011;10108;50.142;8.724;2023-03-13T00:43:43;17.15;;;6.43;;
19891;SDS011;10108;50.142;8.724;2023-03-13T00:46:10;19.42;;;6.53;;
19891;SDS011;10108;50.142;8.724;2023-03-13T00:48:38;17.58;;;6.55;;
19891;SDS011;10108;50.142;8.724;2023-03-13T00:51:04;16.27;;;6.13;;
19891;SDS011;10108;50.142;8.724;2023-03-13T00:53:31;17.98;;;6.22;;
19891;SDS011;10108;50.142;8.724;2023-03-13T00:55:59;18.88;;;6.20;;
19891;SDS011;10108;50.142;8.724;2023-03-13T00:58:31;22.58;;;6.78;;
19891;SDS011;10108;50.142;8.724;2023-03-13T01:01:13;13.80;;;6.28;;
19891;SDS011;10108;50.142;8.724;2023-03-13T01:03:42;17.65;;;6.57;;
19891;SDS011;10108;50.142;8.724;2023-03-13T01:06:12;16.98;;;6.78;;
19891;SDS011;10108;50.142;8.724;2023-03-13T01:08:40;17.10;;;7.05;;
19891;SDS011;10108;50.142;8.724;2023-03-13T01:11:07;22.98;;;7.20;;
19891;SDS011;10108;50.142;8.724;2023-03-13T01:13:35;22.00;;;7.22;;
19891;SDS011;10108;50.142;8.724;2023-03-13T01:16:05;22.23;;;7.10;;
19891;SDS011;10108;50.142;8.724;2023-03-13T01:18:36;19.73;;;7.50;;
19891;SDS011;10108;50.142;8.724;2023-03-13T01:21:04;15.38;;;7.07;;
19891;SDS011;10108;50.142;8.724;2023-03-13T01:23:31;19.65;;;6.90;;
19891;SDS011;10108;50.142;8.724;2023-03-13T01:25:57;18.40;;;6.43;;
19891;SDS011;10108;50.142;8.724;2023-03-13T01:28:24;18.33;;;6.30;;
19891;SDS011;10108;50.142;8.724;2023-03-13T01:30:51;18.10;;;6.47;;
19891;SDS011;10108;50.142;8.724;2023-03-13T01:33:17;21.02;;;6.65;;
19891;SDS011;10108;50.142;8.724;2023-03-13T01:35:45;24.65;;;7.50;;
19891;SDS011;10108;50.142;8.724;2023-03-13T01:38:12;17.67;;;6.38;;
19891;SDS011;10108;50.142;8.724;2023-03-13T01:40:39;18.67;;;6.70;;
19891;SDS011;10108;50.142;8.724;2023-03-13T01:43:14;18.58;;;6.70;;
19891;SDS011;10108;50.142;8.724;2023-03-13T01:48:37;19.98;;;6.72;;
19891;SDS011;10108;50.142;8.724;2023-03-13T01:51:23;16.90;;;6.15;;
19891;SDS011;10108;50.142;8.724;2023-03-13T01:53:53;15.70;;;5.90;;
19891;SDS011;10108;50.142;8.724;2023-03-13T01:56:28;19.52;;;7.03;;
19891;SDS011;10108;50.142;8.724;2023-03-13T01:58:59;18.63;;;6.38;;
19891;SDS011;10108;50.142;8.724;2023-03-13T02:01:26;19.80;;;6.90;;
19891;SDS011;10108;50.142;8.724;2023-03-13T02:03:52;17.33;;;6.10;;
19891;SDS011;10108;50.142;8.724;2023-03-13T02:06:21;14.75;;;6.47;;
19891;SDS011;10108;50.142;8.724;2023-03-13T02:08:52;16.75;;;6.13;;
19891;SDS011;10108;50.142;8.724;2023-03-13T02:14:38;18.45;;;7.10;;
19891;SDS011;10108;50.142;8.724;2023-03-13T02:17:08;17.65;;;7.72;;
19891;SDS011;10108;50.142;8.724;2023-03-13T02:19:37;20.00;;;7.50;;
19891;SDS011;10108;50.142;8.724;2023-03-13T02:27:47;16.52;;;8.50;;
19891;SDS011;10108;50.142;8.724;2023-03-13T02:30:17;15.57;;;8.75;;
19891;SDS011;10108;50.142;8.724;2023-03-13T02:32:44;14.75;;;8.80;;
19891;SDS011;10108;50.142;8.724;2023-03-13T02:35:11;17.10;;;8.52;;
19891;SDS011;10108;50.142;8.724;2023-03-13T02:37:41;16.40;;;8.80;;
19891;SDS011;10108;50.142;8.724;2023-03-13T02:40:15;21.50;;;9.20;;
19891;SDS011;10108;50.142;8.724;2023-03-13T02:42:46;19.15;;;8.90;;
19891;SDS011;10108;50.142;8.724;2023-03-13T02:45:14;20.10;;;9.15;;
19891;SDS011;10108;50.142;8.724;2023-03-13T02:47:42;21.23;;;10.18;;
19891;SDS011;10108;50.142;8.724;2023-03-13T02:50:10;18.70;;;9.88;;
19891;SDS011;10108;50.142;8.724;2023-03-13T02:52:44;20.63;;;10.32;;
19891;SDS011;10108;50.142;8.724;2023-03-13T02:55:15;23.27;;;9.57;;
19891;SDS011;10108;50.142;8.724;2023-03-13T02:57:51;17.40;;;10.30;;
19891;SDS011;10108;50.142;8.724;2023-03-13T03:00:17;19.92;;;10.30;;
19891;SDS011;10108;50.142;8.724;2023-03-13T03:02:44;17.92;;;10.13;;
19891;SDS011;10108;50.142;8.724;2023-03-13T03:05:11;16.20;;;10.20;;
19891;SDS011;10108;50.142;8.724;2023-03-13T03:07:38;16.13;;;10.30;;
19891;SDS011;10108;50.142;8.724;2023-03-13T03:10:06;18.60;;;11.30;;
19891;SDS011;10108;50.142;8.724;2023-03-13T03:12:34;19.35;;;10.60;;
19891;SDS011;10108;50.142;8.724;2023-03-13T03:15:00;19.52;;;12.18;;
19891;SDS011;10108;50.142;8.724;2023-03-13T03:17:30;24.20;;;12.50;;
19891;SDS011;10108;50.142;8.724;2023-03-13T03:19:56;18.05;;;11.85;;
19891;SDS011;10108;50.142;8.724;2023-03-13T03:22:22;20.27;;;11.30;;
19891;SDS011;10108;50.142;8.724;2023-03-13T03:24:48;20.50;;;11.70;;
19891;SDS011;10108;50.142;8.724;2023-03-13T03:27:14;16.95;;;10.98;;
19891;SDS011;10108;50.142;8.724;2023-03-13T03:29:46;20.42;;;11.65;;
19891;SDS011;10108;50.142;8.724;2023-03-13T03:32:12;19.33;;;11.50;;
19891;SDS011;10108;50.142;8.724;2023-03-13T03:34:38;17.23;;;11.52;;
19891;SDS011;10108;50.142;8.724;2023-03-13T03:37:05;17.00;;;11.77;;
19891;SDS011;10108;50.142;8.724;2023-03-13T03:39:31;20.02;;;12.95;;
19891;SDS011;10108;50.142;8.724;2023-03-13T03:41:58;21.77;;;12.68;;
19891;SDS011;10108;50.142;8.724;2023-03-13T03:44:25;15.40;;;11.20;;
19891;SDS011;10108;50.142;8.724;2023-03-13T03:46:54;18.45;;;11.38;;
19891;SDS011;10108;50.142;8.724;2023-03-13T03:49:22;20.08;;;11.52;;
19891;SDS011;10108;50.142;8.724;2023-03-13T03:51:48;23.70;;;13.20;;
19891;SDS011;10108;50.142;8.724;2023-03-13T03:54:18;15.90;;;12.50;;
19891;SDS011;10108;50.142;8.724;2023-03-13T03:56:44;24.00;;;12.85;;
19891;SDS011;10108;50.142;8.724;2023-03-13T03:59:10;22.38;;;12.80;;
19891;SDS011;10108;50.142;8.724;2023-03-13T04:01:55;18.85;;;12.52;;
19891;SDS011;10108;50.142;8.724;2023-03-13T04:04:24;22.80;;;13.43;;
19891;SDS011;10108;50.142;8.724;2023-03-13T04:06:57;18.92;;;12.98;;
19891;SDS011;10108;50.142;8.724;2023-03-13T04:09:24;19.67;;;13.30;;
19891;SDS011;10108;50.142;8.724;2023-03-13T04:11:50;23.38;;;14.00;;
19891;SDS011;10108;50.142;8.724;2023-03-13T04:14:17;18.40;;;13.25;;
19891;SDS011;10108;50.142;8.724;2023-03-13T04:16:43;27.77;;;13.38;;
19891;SDS011;10108;50.142;8.724;2023-03-13T04:19:11;20.02;;;12.70;;
19891;SDS011;10108;50.142;8.724;2023-03-13T04:21:37;24.50;;;13.18;;
19891;SDS011;10108;50.142;8.724;2023-03-13T04:24:09;17.00;;;12.77;;
19891;SDS011;10108;50.142;8.724;2023-03-13T04:26:37;15.48;;;12.50;;
19891;SDS011;10108;50.142;8.724;2023-03-13T04:29:03;25.08;;;14.05;;
19891;SDS011;10108;50.142;8.724;2023-03-13T04:32:00;22.00;;;13.05;;
19891;SDS011;10108;50.142;8.724;2023-03-13T04:34:51;18.42;;;12.57;;
19891;SDS011;10108;50.142;8.724;2023-03-13T04:37:40;17.90;;;12.90;;
19891;SDS011;10108;50.142;8.724;2023-03-13T04:40:25;18.10;;;13.57;;
19891;SDS011;10108;50.142;8.724;2023-03-13T04:43:20;20.13;;;12.80;;
19891;SDS011;10108;50.142;8.724;2023-03-13T04:45:53;18.55;;;13.00;;
19891;SDS011;10108;50.142;8.724;2023-03-13T04:48:35;19.58;;;12.57;;
19891;SDS011;10108;50.142;8.724;2023-03-13T04:51:30;19.98;;;12.50;;
19891;SDS011;10108;50.142;8.724;2023-03-13T04:54:17;19.10;;;12.18;;
19891;SDS011;10108;50.142;8.724;2023-03-13T04:57:09;14.13;;;11.40;;
19891;SDS011;10108;50.142;8.724;2023-03-13T04:59:40;27.27;;;12.35;;
19891;SDS011;10108;50.142;8.724;2023-03-13T05:02:35;20.52;;;11.32;;
19891;SDS011;10108;50.142;8.724;2023-03-13T05:05:25;17.48;;;11.82;;
19891;SDS011;10108;50.142;8.724;2023-03-13T05:08:29;17.38;;;11.30;;
19891;SDS011;10108;50.142;8.724;2023-03-13T05:11:16;16.40;;;11.48;;
19891;SDS011;10108;50.142;8.724;2023-03-13T05:13:56;18.83;;;12.52;;
19891;SDS011;10108;50.142;8.724;2023-03-13T05:16:54;18.90;;;11.70;;
19891;SDS011;10108;50.142;8.724;2023-03-13T05:19:44;18.23;;;11.65;;
19891;SDS011;10108;50.142;8.724;2023-03-13T05:22:23;18.30;;;11.38;;
19891;SDS011;10108;50.142;8.724;2023-03-13T05:25:07;17.15;;;11.23;;
19891;SDS011;10108;50.142;8.724;2023-03-13T05:28:00;19.02;;;10.93;;
19891;SDS011;10108;50.142;8.724;2023-03-13T05:30:46;17.65;;;11.05;;
19891;SDS011;10108;50.142;8.724;2023-03-13T05:33:26;19.58;;;10.90;;
19891;SDS011;10108;50.142;8.724;2023-03-13T05:36:11;17.17;;;10.48;;
19891;SDS011;10108;50.142;8.724;2023-03-13T05:38:44;21.45;;;10.73;;
19891;SDS011;10108;50.142;8.724;2023-03-13T05:41:21;17.55;;;12.07;;
19891;SDS011;10108;50.142;8.724;2023-03-13T05:44:07;22.52;;;10.93;;
19891;SDS011;10108;50.142;8.724;2023-03-13T05:46:49;15.00;;;10.90;;
19891;SDS011;10108;50.142;8.724;2023-03-13T05:49:30;20.27;;;10.85;;
19891;SDS011;10108;50.142;8.724;2023-03-13T05:52:34;15.13;;;10.85;;
19891;SDS011;10108;50.142;8.724;2023-03-13T05:55:03;13.05;;;10.32;;
19891;SDS011;10108;50.142;8.724;2023-03-13T05:57:49;12.23;;;10.20;;
19891;SDS011;10108;50.142;8.724;2023-03-13T06:00:25;12.27;;;10.27;;
19891;SDS011;10108;50.142;8.724;2023-03-13T06:03:07;13.65;;;10.40;;
19891;SDS011;10108;50.142;8.724;2023-03-13T06:05:38;16.45;;;10.00;;
19891;SDS011;10108;50.142;8.724;2023-03-13T06:08:13;15.35;;;11.05;;
19891;SDS011;10108;50.142;8.724;2023-03-13T06:10:40;13.18;;;10.18;;
19891;SDS011;10108;50.142;8.724;2023-03-13T06:13:06;14.77;;;11.27;;
19891;SDS011;10108;50.142;8.724;2023-03-13T06:15:34;15.02;;;11.25;;
19891;SDS011;10108;50.142;8.724;2023-03-13T06:18:11;12.23;;;10.88;;
19891;SDS011;10108;50.142;8.724;2023-03-13T06:20:38;16.00;;;10.73;;
19891;SDS011;10108;50.142;8.724;2023-03-13T06:23:04;13.77;;;10.82;;
19891;SDS011;10108;50.142;8.724;2023-03-13T06:25:31;16.35;;;10.98;;
19891;SDS011;10108;50.142;8.724;2023-03-13T06:27:59;13.20;;;10.40;;
19891;SDS011;10108;50.142;8.724;2023-03-13T06:30:25;13.00;;;10.23;;
19891;SDS011;10108;50.142;8.724;2023-03-13T06:32:52;14.65;;;10.35;;
19891;SDS011;10108;50.142;8.724;2023-03-13T06:35:18;20.70;;;10.95;;
19891;SDS011;10108;50.142;8.724;2023-03-13T06:37:45;12.45;;;10.65;;
19891;SDS011;10108;50.142;8.724;2023-03-13T06:40:11;15.60;;;10.48;;
19891;SDS011;10108;50.142;8.724;2023-03-13T06:42:38;13.13;;;10.20;;
19891;SDS011;10108;50.142;8.724;2023-03-13T06:45:04;13.32;;;10.32;;
19891;SDS011;10108;50.142;8.724;2023-03-13T06:47:31;14.82;;;10.55;;
19891;SDS011;10108;50.142;8.724;2023-03-13T06:49:57;11.77;;;9.88;;
19891;SDS011;10108;50.142;8.724;2023-03-13T06:52:24;10.82;;;9.50;;
19891;SDS011;10108;50.142;8.724;2023-03-13T06:54:50;13.07;;;10.00;;
19891;SDS011;10108;50.142;8.724;2023-03-13T06:57:16;13.70;;;10.23;;
19891;SDS011;10108;50.142;8.724;2023-03-13T06:59:43;13.65;;;10.02;;
19891;SDS011;10108;50.142;8.724;2023-03-13T07:02:12;13.68;;;9.68;;
19891;SDS011;10108;50.142;8.724;2023-03-13T07:04:39;16.92;;;9.88;;
19891;SDS011;10108;50.142;8.724;2023-03-13T07:07:05;14.32;;;10.20;;
19891;SDS011;10108;50.142;8.724;2023-03-13T07:09:31;11.38;;;9.50;;
19891;SDS011;10108;50.142;8.724;2023-03-13T07:11:58;13.98;;;9.60;;
19891;SDS011;10108;50.142;8.724;2023-03-13T07:14:24;12.32;;;9.55;;
19891;SDS011;10108;50.142;8.724;2023-03-13T07:16:51;14.05;;;9.43;;
19891;SDS011;10108;50.142;8.724;2023-03-13T07:19:17;13.55;;;9.20;;
19891;SDS011;10108;50.142;8.724;2023-03-13T07:21:44;12.05;;;9.60;;
19891;SDS011;10108;50.142;8.724;2023-03-13T07:24:11;13.27;;;9.50;;
19891;SDS011;10108;50.142;8.724;2023-03-13T07:26:37;12.40;;;9.35;;
19891;SDS011;10108;50.142;8.724;2023-03-13T07:29:04;11.80;;;9.10;;
19891;SDS011;10108;50.142;8.724;2023-03-13T07:31:30;14.75;;;9.23;;
19891;SDS011;10108;50.142;8.724;2023-03-13T07:33:58;12.35;;;9.05;;
19891;SDS011;10108;50.142;8.724;2023-03-13T07:36:24;14.70;;;8.77;;
19891;SDS011;10108;50.142;8.724;2023-03-13T07:38:51;10.38;;;8.70;;
19891;SDS011;10108;50.142;8.724;2023-03-13T07:41:18;11.82;;;9.25;;
19891;SDS011;10108;50.142;8.724;2023-03-13T07:43:45;10.80;;;8.68;;
19891;SDS011;10108;50.142;8.724;2023-03-13T07:46:13;12.02;;;8.70;;
19891;SDS011;10108;50.142;8.724;2023-03-13T07:48:40;11.70;;;8.50;;
19891;SDS011;10108;50.142;8.724;2023-03-13T07:51:09;9.30;;;8.30;;
19891;SDS011;10108;50.142;8.724;2023-03-13T07:53:36;10.02;;;8.18;;
19891;SDS011;10108;50.142;8.724;2023-03-13T07:58:31;10.75;;;7.93;;
19891;SDS011;10108;50.142;8.724;2023-03-13T08:00:58;10.15;;;8.27;;
19891;SDS011;10108;50.142;8.724;2023-03-13T08:03:25;10.88;;;8.00;;
19891;SDS011;10108;50.142;8.724;2023-03-13T08:06:01;12.68;;;8.05;;
19891;SDS011;10108;50.142;8.724;2023-03-13T08:08:29;9.20;;;8.18;;
19891;SDS011;10108;50.142;8.724;2023-03-13T08:10:59;9.38;;;8.05;;
19891;SDS011;10108;50.142;8.724;2023-03-13T08:13:25;10.18;;;7.90;;
19891;SDS011;10108;50.142;8.724;2023-03-13T08:15:52;11.30;;;7.90;;
19891;SDS011;10108;50.142;8.724;2023-03-13T08:18:18;10.10;;;8.27;;
19891;SDS011;10108;50.142;8.724;2023-03-13T08:20:44;10.80;;;8.05;;
19891;SDS011;10108;50.142;8.724;2023-03-13T08:23:11;10.50;;;8.18;;
19891;SDS011;10108;50.142;8.724;2023-03-13T08:25:37;10.60;;;7.95;;
19891;SDS011;10108;50.142;8.724;2023-03-13T08:28:04;10.45;;;8.25;;
19891;SDS011;10108;50.142;8.724;2023-03-13T08:30:30;8.77;;;7.88;;
19891;SDS011;10108;50.142;8.724;2023-03-13T08:32:56;9.75;;;8.45;;
19891;SDS011;10108;50.142;8.724;2023-03-13T08:35:23;11.95;;;8.40;;
19891;SDS011;10108;50.142;8.724;2023-03-13T08:37:50;10.45;;;9.00;;
19891;SDS011;10108;50.142;8.724;2023-03-13T08:40:17;10.20;;;9.10;;
19891;SDS011;10108;50.142;8.724;2023-03-13T08:42:43;9.60;;;8.60;;
19891;SDS011;10108;50.142;8.724;2023-03-13T08:45:10;12.55;;;8.98;;
19891;SDS011;10108;50.142;8.724;2023-03-13T08:47:36;14.43;;;9.23;;
19891;SDS011;10108;50.142;8.724;2023-03-13T08:50:09;10.88;;;8.60;;
19891;SDS011;10108;50.142;8.724;2023-03-13T08:52:35;11.85;;;8.82;;
19891;SDS011;10108;50.142;8.724;2023-03-13T08:55:02;12.27;;;8.90;;
19891;SDS011;10108;50.142;8.724;2023-03-13T08:57:28;11.60;;;8.60;;
19891;SDS011;10108;50.142;8.724;2023-03-13T08:59:55;10.80;;;9.00;;
19891;SDS011;10108;50.142;8.724;2023-03-13T09:02:21;11.00;;;8.90;;
19891;SDS011;10108;50.142;8.724;2023-03-13T09:04:47;11.23;;;9.15;;
19891;SDS011;10108;50.142;8.724;2023-03-13T09:07:14;12.70;;;9.52;;
19891;SDS011;10108;50.142;8.724;2023-03-13T09:09:41;11.18;;;8.40;;
19891;SDS011;10108;50.142;8.724;2023-03-13T09:12:07;9.40;;;8.40;;
19891;SDS011;10108;50.142;8.724;2023-03-13T09:14:38;11.43;;;8.45;;
19891;SDS011;10108;50.142;8.724;2023-03-13T09:17:05;10.75;;;8.23;;
19891;SDS011;10108;50.142;8.724;2023-03-13T09:19:32;10.73;;;8.70;;
19891;SDS011;10108;50.142;8.724;2023-03-13T09:21:58;11.07;;;8.27;;
19891;SDS011;10108;50.142;8.724;2023-03-13T09:24:25;11.52;;;8.18;;
19891;SDS011;10108;50.142;8.724;2023-03-13T09:26:51;10.65;;;8.50;;
19891;SDS011;10108;50.142;8.724;2023-03-13T09:29:18;10.25;;;8.10;;
19891;SDS011;10108;50.142;8.724;2023-03-13T09:31:44;9.90;;;8.10;;
19891;SDS011;10108;50.142;8.724;2023-03-13T09:34:11;10.05;;;7.53;;
19891;SDS011;10108;50.142;8.724;2023-03-13T09:36:37;12.10;;;7.57;;
19891;SDS011;10108;50.142;8.724;2023-03-13T09:39:03;9.43;;;7.60;;
19891;SDS011;10108;50.142;8.724;2023-03-13T09:41:32;10.15;;;7.47;;
19891;SDS011;10108;50.142;8.724;2023-03-13T09:49:36;11.07;;;7.28;;
19891;SDS011;10108;50.142;8.724;2023-03-13T09:52:17;8.80;;;6.78;;
19891;SDS011;10108;50.142;8.724;2023-03-13T10:03:06;6.88;;;6.18;;
19891;SDS011;10108;50.142;8.724;2023-03-13T10:05:30;8.70;;;7.10;;
19891;SDS011;10108;50.142;8.724;2023-03-13T10:15:55;12.13;;;7.47;;
19891;SDS011;10108;50.142;8.724;2023-03-13T10:18:22;10.52;;;7.43;;
19891;SDS011;10108;50.142;8.724;2023-03-13T10:20:50;9.80;;;7.10;;
19891;SDS011;10108;50.142;8.724;2023-03-13T10:25:47;10.77;;;7.72;;
19891;SDS011;10108;50.142;8.724;2023-03-13T10:28:15;9.50;;;7.55;;
19891;SDS011;10108;50.142;8.724;2023-03-13T10:30:46;13.40;;;7.75;;
19891;SDS011;10108;50.142;8.724;2023-03-13T10:35:40;9.02;;;6.90;;
19891;SDS011;10108;50.142;8.724;2023-03-13T10:38:14;11.85;;;7.60;;
19891;SDS011;10108;50.142;8.724;2023-03-13T10:40:47;10.30;;;6.75;;
19891;SDS011;10108;50.142;8.724;2023-03-13T10:43:24;13.10;;;6.97;;
19891;SDS011;10108;50.142;8.724;2023-03-13T10:45:52;9.88;;;7.38;;
19891;SDS011;10108;50.142;8.724;2023-03-13T10:48:19;9.15;;;6.47;;
19891;SDS011;10108;50.142;8.724;2023-03-13T10:50:48;9.05;;;6.70;;
19891;SDS011;10108;50.142;8.724;2023-03-13T10:55:57;10.15;;;6.95;;
19891;SDS011;10108;50.142;8.724;2023-03-13T10:58:42;10.95;;;6.82;;
19891;SDS011;10108;50.142;8.724;2023-03-13T11:01:24;10.30;;;6.93;;
19891;SDS011;10108;50.142;8.724;2023-03-13T11:03:51;8.27;;;6.70;;
19891;SDS011;10108;50.142;8.724;2023-03-13T11:06:31;8.82;;;6.85;;
19891;SDS011;10108;50.142;8.724;2023-03-13T11:09:17;12.23;;;7.10;;
19891;SDS011;10108;50.142;8.724;2023-03-13T11:11:45;10.40;;;6.50;;
19891;SDS011;10108;50.142;8.724;2023-03-13T11:14:14;9.40;;;7.00;;
19891;SDS011;10108;50.142;8.724;2023-03-13T11:16:45;9.45;;;6.90;;
19891;SDS011;10108;50.142;8.724;2023-03-13T11:19:24;10.88;;;7.07;;
19891;SDS011;10108;50.142;8.724;2023-03-13T11:24:54;12.65;;;7.35;;
19891;SDS011;10108;50.142;8.724;2023-03-13T11:27:47;10.82;;;6.65;;
19891;SDS011;10108;50.142;8.724;2023-03-13T11:33:46;10.20;;;6.75;;
19891;SDS011;10108;50.142;8.724;2023-03-13T11:36:22;13.52;;;7.68;;
19891;SDS011;10108;50.142;8.724;2023-03-13T11:44:54;13.25;;;7.38;;
19891;SDS011;10108;50.142;8.724;2023-03-13T11:48:02;10.68;;;6.25;;
19891;SDS011;10108;50.142;8.724;2023-03-13T11:50:57;9.52;;;6.10;;
19891;SDS011;10108;50.142;8.724;2023-03-13T11:59:27;9.80;;;6.60;;
19891;SDS011;10108;50.142;8.724;2023-03-13T12:02:01;12.13;;;6.47;;
19891;SDS011;10108;50.142;8.724;2023-03-13T12:04:51;10.18;;;6.70;;
19891;SDS011;10108;50.142;8.724;2023-03-13T12:07:26;10.98;;;6.20;;
19891;SDS011;10108;50.142;8.724;2023-03-13T12:10:26;10.57;;;6.15;;
19891;SDS011;10108;50.142;8.724;2023-03-13T12:18:14;10.63;;;5.95;;
19891;SDS011;10108;50.142;8.724;2023-03-13T12:23:26;9.07;;;5.80;;
19891;SDS011;10108;50.142;8.724;2023-03-13T12:26:03;10.07;;;5.80;;
19891;SDS011;10108;50.142;8.724;2023-03-13T12:28:47;10.00;;;5.85;;
19891;SDS011;10108;50.142;8.724;2023-03-13T12:31:35;9.93;;;6.00;;
19891;SDS011;10108;50.142;8.724;2023-03-13T12:36:55;10.63;;;5.65;;
19891;SDS011;10108;50.142;8.724;2023-03-13T12:42:15;8.27;;;5.40;;
19891;SDS011;10108;50.142;8.724;2023-03-13T12:45:00;9.95;;;6.30;;
19891;SDS011;10108;50.142;8.724;2023-03-13T12:47:34;8.82;;;5.57;;
19891;SDS011;10108;50.142;8.724;2023-03-13T12:53:54;6.75;;;5.40;;
19891;SDS011;10108;50.142;8.724;2023-03-13T12:56:34;10.30;;;6.45;;
19891;SDS011;10108;50.142;8.724;2023-03-13T12:59:10;10.38;;;6.85;;
19891;SDS011;10108;50.142;8.724;2023-03-13T13:01:54;9.52;;;6.68;;
19891;SDS011;10108;50.142;8.724;2023-03-13T13:04:24;8.60;;;6.35;;
19891;SDS011;10108;50.142;8.724;2023-03-13T13:06:54;11.07;;;6.75;;
19891;SDS011;10108;50.142;8.724;2023-03-13T13:12:19;10.65;;;7.40;;
19891;SDS011;10108;50.142;8.724;2023-03-13T13:19:52;11.43;;;7.30;;
19891;SDS011;10108;50.142;8.724;2023-03-13T13:30:03;13.00;;;9.07;;
19891;SDS011;10108;50.142;8.724;2023-03-13T13:32:42;13.25;;;9.32;;
19891;SDS011;10108;50.142;8.724;2023-03-13T13:35:32;16.10;;;9.13;;
19891;SDS011;10108;50.142;8.724;2023-03-13T13:43:35;11.27;;;8.52;;
19891;SDS011;10108;50.142;8.724;2023-03-13T13:46:21;11.02;;;8.30;;
19891;SDS011;10108;50.142;8.724;2023-03-13T13:51:31;13.85;;;8.60;;
19891;SDS011;10108;50.142;8.724;2023-03-13T13:56:58;15.45;;;8.50;;
19891;SDS011;10108;50.142;8.724;2023-03-13T14:07:18;12.18;;;8.95;;
19891;SDS011;10108;50.142;8.724;2023-03-13T14:12:33;13.40;;;8.73;;
19891;SDS011;10108;50.142;8.724;2023-03-13T14:15:14;12.35;;;8.40;;
19891;SDS011;10108;50.142;8.724;2023-03-13T14:17:46;12.27;;;8.30;;
19891;SDS011;10108;50.142;8.724;2023-03-13T14:22:56;10.32;;;7.90;;
19891;SDS011;10108;50.142;8.724;2023-03-13T14:25:25;13.63;;;8.10;;
19891;SDS011;10108;50.142;8.724;2023-03-13T14:28:14;15.27;;;7.65;;
19891;SDS011;10108;50.142;8.724;2023-03-13T14:30:42;12.15;;;7.53;;
19891;SDS011;10108;50.142;8.724;2023-03-13T14:33:09;11.60;;;7.65;;
19891;SDS011;10108;50.142;8.724;2023-03-13T14:35:38;13.75;;;7.85;;
19891;SDS011;10108;50.142;8.724;2023-03-13T14:38:05;14.00;;;7.57;;
19891;SDS011;10108;50.142;8.724;2023-03-13T14:40:32;13.05;;;7.85;;
19891;SDS011;10108;50.142;8.724;2023-03-13T14:43:03;12.05;;;7.00;;
19891;SDS011;10108;50.142;8.724;2023-03-13T14:45:41;8.95;;;6.63;;
19891;SDS011;10108;50.142;8.724;2023-03-13T14:48:13;8.38;;;6.40;;
19891;SDS011;10108;50.142;8.724;2023-03-13T14:50:52;10.65;;;6.53;;
19891;SDS011;10108;50.142;8.724;2023-03-13T14:53:25;9.02;;;6.43;;
19891;SDS011;10108;50.142;8.724;2023-03-13T14:56:08;7.38;;;5.88;;
19891;SDS011;10108;50.142;8.724;2023-03-13T14:58:38;7.53;;;5.93;;
19891;SDS011;10108;50.142;8.724;2023-03-13T15:01:11;6.70;;;5.80;;
19891;SDS011;10108;50.142;8.724;2023-03-13T15:03:58;9.23;;;5.95;;
19891;SDS011;10108;50.142;8.724;2023-03-13T15:06:24;7.57;;;5.80;;
19891;SDS011;10108;50.142;8.724;2023-03-13T15:11:52;9.23;;;6.30;;
19891;SDS011;10108;50.142;8.724;2023-03-13T15:14:39;7.50;;;6.60;;
19891;SDS011;10108;50.142;8.724;2023-03-13T15:17:13;10.88;;;7.82;;
19891;SDS011;10108;50.142;8.724;2023-03-13T15:19:40;12.40;;;9.77;;
19891;SDS011;10108;50.142;8.724;2023-03-13T15:22:13;31.17;;;22.63;;
19891;SDS011;10108;50.142;8.724;2023-03-13T15:24:41;25.65;;;22.85;;
19891;SDS011;10108;50.142;8.724;2023-03-13T15:27:16;23.40;;;21.30;;
19891;SDS011;10108;50.142;8.724;2023-03-13T15:29:44;25.45;;;22.30;;
19891;SDS011;10108;50.142;8.724;2023-03-13T15:32:16;24.23;;;21.92;;
19891;SDS011;10108;50.142;8.724;2023-03-13T15:34:49;25.40;;;21.90;;
19891;SDS011;10108;50.142;8.724;2023-03-13T15:37:16;23.30;;;20.77;;
19891;SDS011;10108;50.142;8.724;2023-03-13T15:39:43;22.05;;;20.25;;
19891;SDS011;10108;50.142;8.724;2023-03-13T15:42:10;20.92;;;19.23;;
19891;SDS011;10108;50.142;8.724;2023-03-13T15:44:37;20.55;;;18.88;;
19891;SDS011;10108;50.142;8.724;2023-03-13T15:47:03;20.10;;;18.42;;
19891;SDS011;10108;50.142;8.724;2023-03-13T15:49:29;19.90;;;18.30;;
19891;SDS011;10108;50.142;8.724;2023-03-13T15:51:56;19.77;;;18.17;;
19891;SDS011;10108;50.142;8.724;2023-03-13T15:54:22;20.00;;;18.40;;
19891;SDS011;10108;50.142;8.724;2023-03-13T15:56:49;20.05;;;18.45;;
19891;SDS011;10108;50.142;8.724;2023-03-13T15:59:15;19.58;;;17.98;;
19891;SDS011;10108;50.142;8.724;2023-03-13T16:01:41;19.40;;;17.90;;
19891;SDS011;10108;50.142;8.724;2023-03-13T16:04:10;19.50;;;18.00;;
19891;SDS011;10108;50.142;8.724;2023-03-13T16:06:36;19.10;;;17.60;;
19891;SDS011;10108;50.142;8.724;2023-03-13T16:09:03;18.65;;;17.15;;
19891;SDS011;10108;50.142;8.724;2023-03-13T16:11:31;18.23;;;16.73;;
19891;SDS011;10108;50.142;8.724;2023-03-13T16:13:57;18.88;;;17.38;;
19891;SDS011;10108;50.142;8.724;2023-03-13T16:16:28;18.77;;;17.27;;
19891;SDS011;10108;50.142;8.724;2023-03-13T16:18:56;20.35;;;18.60;;
19891;SDS011;10108;50.142;8.724;2023-03-13T16:21:24;19.05;;;17.45;;
19891;SDS011;10108;50.142;8.724;2023-03-13T16:23:52;19.02;;;17.42;;
19891;SDS011;10108;50.142;8.724;2023-03-13T16:26:22;18.90;;;17.30;;
19891;SDS011;10108;50.142;8.724;2023-03-13T16:28:51;19.25;;;17.65;;
19891;SDS011;10108;50.142;8.724;2023-03-13T16:33:44;18.83;;;17.30;;
19891;SDS011;10108;50.142;8.724;2023-03-13T16:36:18;18.75;;;17.25;;
19891;SDS011;10108;50.142;8.724;2023-03-13T16:38:46;18.52;;;17.02;;
19891;SDS011;10108;50.142;8.724;2023-03-13T16:41:13;18.60;;;17.10;;
19891;SDS011;10108;50.142;8.724;2023-03-13T16:43:41;18.85;;;17.35;;
19891;SDS011;10108;50.142;8.724;2023-03-13T16:46:10;18.92;;;17.42;;
19891;SDS011;10108;50.142;8.724;2023-03-13T16:48:38;18.63;;;17.13;;
19891;SDS011;10108;50.142;8.724;2023-03-13T16:51:04;18.48;;;16.98;;
19891;SDS011;10108;50.142;8.724;2023-03-13T16:53:30;18.13;;;16.63;;
19891;SDS011;10108;50.142;8.724;2023-03-13T16:55:56;18.13;;;16.63;;
19891;SDS011;10108;50.142;8.724;2023-03-13T16:58:23;17.83;;;16.33;;
19891;SDS011;10108;50.142;8.724;2023-03-13T17:00:49;17.20;;;15.80;;